sensor_id;sensor_type;location;lat;lon;timestamp;temperature;humidity
13684;DHT22;6914;53.552;9.908;2022-11-11T00:00:08;11.60;99.90
13684;DHT22;6914;53.552;9.908;2022-11-11T00:02:35;11.60;99.90
13684;DHT22;6914;53.552;9.908;2022-11-11T00:05:01;11.60;99.90
13684;DHT22;6914;53.552;9.908;2022-11-11T00:07:28;11.60;99.90
13684;DHT22;6914;53.552;9.908;2022-11-11T00:09:55;11.50;99.90
13684;DHT22;6914;53.552;9.908;2022-11-11T00:12:22;11.60;99.90
13684;DHT22;6914;53.552;9.908;2022-11-11T00:14:49;11.50;99.90
13684;DHT22;6914;53.552;9.908;2022-11-11T00:17:17;11.60;99.90
13684;DHT22;6914;53.552;9.908;2022-11-11T00:19:57;11.60;99.90
13684;DHT22;6914;53.552;9.908;2022-11-11T00:22:42;11.50;99.90
13684;DHT22;6914;53.552;9.908;2022-11-11T00:25:26;11.60;99.90
13684;DHT22;6914;53.552;9.908;2022-11-11T00:27:53;11.60;99.90
13684;DHT22;6914;53.552;9.908;2022-11-11T00:30:20;11.70;99.90
13684;DHT22;6914;53.552;9.908;2022-11-11T00:32:48;11.70;99.90
13684;DHT22;6914;53.552;9.908;2022-11-11T00:35:15;11.70;99.90
13684;DHT22;6914;53.552;9.908;2022-11-11T00:38:06;11.80;99.90
13684;DHT22;6914;53.552;9.908;2022-11-11T00:40:33;11.80;99.90
13684;DHT22;6914;53.552;9.908;2022-11-11T00:43:00;11.80;99.90
13684;DHT22;6914;53.552;9.908;2022-11-11T00:45:26;11.60;99.90
13684;DHT22;6914;53.552;9.908;2022-11-11T00:47:55;11.80;99.90
13684;DHT22;6914;53.552;9.908;2022-11-11T00:50:38;11.80;99.90
13684;DHT22;6914;53.552;9.908;2022-11-11T00:53:34;11.80;99.90
13684;DHT22;6914;53.552;9.908;2022-11-11T00:56:03;11.80;99.90
13684;DHT22;6914;53.552;9.908;2022-11-11T00:58:30;11.90;99.90
13684;DHT22;6914;53.552;9.908;2022-11-11T01:00:57;11.90;99.90
13684;DHT22;6914;53.552;9.908;2022-11-11T01:03:25;11.80;99.90
13684;DHT22;6914;53.552;9.908;2022-11-11T01:05:53;11.70;99.90
13684;DHT22;6914;53.552;9.908;2022-11-11T01:08:20;11.80;99.90
13684;DHT22;6914;53.552;9.908;2022-11-11T01:10:50;11.80;99.90
13684;DHT22;6914;53.552;9.908;2022-11-11T01:13:18;11.90;99.90
13684;DHT22;6914;53.552;9.908;2022-11-11T01:15:47;11.90;99.90
13684;DHT22;6914;53.552;9.908;2022-11-11T01:18:16;12.00;99.90
13684;DHT22;6914;53.552;9.908;2022-11-11T01:20:45;12.00;99.90
13684;DHT22;6914;53.552;9.908;2022-11-11T01:23:12;12.10;99.90
13684;DHT22;6914;53.552;9.908;2022-11-11T01:25:41;12.00;99.90
13684;DHT22;6914;53.552;9.908;2022-11-11T01:28:08;11.80;99.90
13684;DHT22;6914;53.552;9.908;2022-11-11T01:30:35;12.00;99.90
13684;DHT22;6914;53.552;9.908;2022-11-11T01:33:03;12.00;99.90
13684;DHT22;6914;53.552;9.908;2022-11-11T01:35:30;12.00;99.90
13684;DHT22;6914;53.552;9.908;2022-11-11T01:37:58;11.90;99.90
13684;DHT22;6914;53.552;9.908;2022-11-11T01:40:25;12.00;99.90
13684;DHT22;6914;53.552;9.908;2022-11-11T01:42:53;12.10;99.90
13684;DHT22;6914;53.552;9.908;2022-11-11T01:45:49;12.10;99.90
13684;DHT22;6914;53.552;9.908;2022-11-11T01:48:24;12.00;99.90
13684;DHT22;6914;53.552;9.908;2022-11-11T01:51:14;12.00;99.90
13684;DHT22;6914;53.552;9.908;2022-11-11T01:53:44;11.80;99.90
13684;DHT22;6914;53.552;9.908;2022-11-11T01:56:13;12.00;99.90
13684;DHT22;6914;53.552;9.908;2022-11-11T01:58:40;12.10;99.90
13684;DHT22;6914;53.552;9.908;2022-11-11T02:01:07;12.00;99.90
13684;DHT22;6914;53.552;9.908;2022-11-11T02:03:37;12.10;99.90
13684;DHT22;6914;53.552;9.908;2022-11-11T02:06:05;11.90;99.90
13684;DHT22;6914;53.552;9.908;2022-11-11T02:08:33;12.20;99.90
13684;DHT22;6914;53.552;9.908;2022-11-11T02:11:05;11.90;99.90
13684;DHT22;6914;53.552;9.908;2022-11-11T02:13:36;11.90;99.90
13684;DHT22;6914;53.552;9.908;2022-11-11T02:16:21;11.80;99.90
13684;DHT22;6914;53.552;9.908;2022-11-11T02:18:48;11.80;99.90
13684;DHT22;6914;53.552;9.908;2022-11-11T02:21:27;11.90;99.90
13684;DHT22;6914;53.552;9.908;2022-11-11T02:24:02;11.70;99.90
13684;DHT22;6914;53.552;9.908;2022-11-11T02:26:31;11.70;99.90
13684;DHT22;6914;53.552;9.908;2022-11-11T02:29:00;11.40;99.90
13684;DHT22;6914;53.552;9.908;2022-11-11T02:31:29;11.30;99.90
13684;DHT22;6914;53.552;9.908;2022-11-11T02:33:57;11.40;99.90
13684;DHT22;6914;53.552;9.908;2022-11-11T02:36:24;11.60;99.90
13684;DHT22;6914;53.552;9.908;2022-11-11T02:38:51;11.80;99.90
13684;DHT22;6914;53.552;9.908;2022-11-11T02:41:19;11.60;99.90
13684;DHT22;6914;53.552;9.908;2022-11-11T02:44:04;11.50;99.90
13684;DHT22;6914;53.552;9.908;2022-11-11T02:46:31;11.50;99.90
13684;DHT22;6914;53.552;9.908;2022-11-11T02:48:57;11.40;99.90
13684;DHT22;6914;53.552;9.908;2022-11-11T02:51:24;11.40;99.90
13684;DHT22;6914;53.552;9.908;2022-11-11T02:53:51;11.40;99.90
13684;DHT22;6914;53.552;9.908;2022-11-11T02:56:24;11.50;99.90
13684;DHT22;6914;53.552;9.908;2022-11-11T02:59:04;11.40;99.90
13684;DHT22;6914;53.552;9.908;2022-11-11T03:01:31;11.40;99.90
13684;DHT22;6914;53.552;9.908;2022-11-11T03:03:58;11.30;99.90
13684;DHT22;6914;53.552;9.908;2022-11-11T03:06:25;11.30;99.90
13684;DHT22;6914;53.552;9.908;2022-11-11T03:08:51;11.40;99.90
13684;DHT22;6914;53.552;9.908;2022-11-11T03:11:18;11.40;99.90
13684;DHT22;6914;53.552;9.908;2022-11-11T03:13:54;11.30;99.90
13684;DHT22;6914;53.552;9.908;2022-11-11T03:16:21;11.50;99.90
13684;DHT22;6914;53.552;9.908;2022-11-11T03:19:05;11.40;99.90
13684;DHT22;6914;53.552;9.908;2022-11-11T03:21:32;11.30;99.90
13684;DHT22;6914;53.552;9.908;2022-11-11T03:23:59;11.30;99.90
13684;DHT22;6914;53.552;9.908;2022-11-11T03:26:26;11.20;99.90
13684;DHT22;6914;53.552;9.908;2022-11-11T03:28:54;11.20;99.90
13684;DHT22;6914;53.552;9.908;2022-11-11T03:31:21;11.20;99.90
13684;DHT22;6914;53.552;9.908;2022-11-11T03:33:48;12.10;99.90
13684;DHT22;6914;53.552;9.908;2022-11-11T03:36:15;10.90;99.90
13684;DHT22;6914;53.552;9.908;2022-11-11T03:38:41;11.10;99.90
13684;DHT22;6914;53.552;9.908;2022-11-11T03:41:07;11.10;99.90
13684;DHT22;6914;53.552;9.908;2022-11-11T03:43:34;10.90;99.90
13684;DHT22;6914;53.552;9.908;2022-11-11T03:46:04;11.00;99.90
13684;DHT22;6914;53.552;9.908;2022-11-11T03:48:32;11.00;99.90
13684;DHT22;6914;53.552;9.908;2022-11-11T03:50:59;11.00;99.90
13684;DHT22;6914;53.552;9.908;2022-11-11T03:53:26;11.00;99.90
13684;DHT22;6914;53.552;9.908;2022-11-11T03:55:52;11.00;99.90
13684;DHT22;6914;53.552;9.908;2022-11-11T03:58:19;11.00;99.90
13684;DHT22;6914;53.552;9.908;2022-11-11T04:00:46;11.10;99.90
13684;DHT22;6914;53.552;9.908;2022-11-11T04:03:16;11.00;99.90
13684;DHT22;6914;53.552;9.908;2022-11-11T04:06:01;10.90;99.90
13684;DHT22;6914;53.552;9.908;2022-11-11T04:08:41;11.00;99.90
13684;DHT22;6914;53.552;9.908;2022-11-11T04:11:28;10.90;99.90
13684;DHT22;6914;53.552;9.908;2022-11-11T04:13:58;10.90;99.90
13684;DHT22;6914;53.552;9.908;2022-11-11T04:16:43;10.90;99.90
13684;DHT22;6914;53.552;9.908;2022-11-11T04:19:11;10.80;99.90
13684;DHT22;6914;53.552;9.908;2022-11-11T04:21:56;10.90;99.90
13684;DHT22;6914;53.552;9.908;2022-11-11T04:24:22;10.90;99.90
13684;DHT22;6914;53.552;9.908;2022-11-11T04:27:08;10.90;99.90
13684;DHT22;6914;53.552;9.908;2022-11-11T04:29:35;10.90;99.90
13684;DHT22;6914;53.552;9.908;2022-11-11T04:32:03;10.80;99.90
13684;DHT22;6914;53.552;9.908;2022-11-11T04:34:50;10.80;99.90
13684;DHT22;6914;53.552;9.908;2022-11-11T04:37:18;10.70;99.90
13684;DHT22;6914;53.552;9.908;2022-11-11T04:39:45;10.70;99.90
13684;DHT22;6914;53.552;9.908;2022-11-11T04:42:30;10.70;99.90
13684;DHT22;6914;53.552;9.908;2022-11-11T04:44:59;10.60;99.90
13684;DHT22;6914;53.552;9.908;2022-11-11T04:47:54;10.70;99.90
13684;DHT22;6914;53.552;9.908;2022-11-11T04:50:24;10.70;99.90
13684;DHT22;6914;53.552;9.908;2022-11-11T04:52:51;10.70;99.90
13684;DHT22;6914;53.552;9.908;2022-11-11T04:55:18;10.70;99.90
13684;DHT22;6914;53.552;9.908;2022-11-11T04:58:03;10.60;99.90
13684;DHT22;6914;53.552;9.908;2022-11-11T05:00:30;10.50;99.90
13684;DHT22;6914;53.552;9.908;2022-11-11T05:02:57;10.60;99.90
13684;DHT22;6914;53.552;9.908;2022-11-11T05:05:46;10.40;99.90
13684;DHT22;6914;53.552;9.908;2022-11-11T05:08:31;10.50;99.90
13684;DHT22;6914;53.552;9.908;2022-11-11T05:11:16;10.40;99.90
13684;DHT22;6914;53.552;9.908;2022-11-11T05:13:43;10.50;99.90
13684;DHT22;6914;53.552;9.908;2022-11-11T05:16:29;10.50;99.90
13684;DHT22;6914;53.552;9.908;2022-11-11T05:19:14;10.50;99.90
13684;DHT22;6914;53.552;9.908;2022-11-11T05:22:06;10.40;99.90
13684;DHT22;6914;53.552;9.908;2022-11-11T05:24:34;10.40;99.90
13684;DHT22;6914;53.552;9.908;2022-11-11T05:27:18;10.30;99.90
13684;DHT22;6914;53.552;9.908;2022-11-11T05:29:46;10.40;99.90
13684;DHT22;6914;53.552;9.908;2022-11-11T05:32:15;10.40;99.90
13684;DHT22;6914;53.552;9.908;2022-11-11T05:34:43;10.30;99.90
13684;DHT22;6914;53.552;9.908;2022-11-11T05:37:11;10.60;99.90
13684;DHT22;6914;53.552;9.908;2022-11-11T05:39:37;10.40;99.90
13684;DHT22;6914;53.552;9.908;2022-11-11T05:42:04;10.30;99.90
13684;DHT22;6914;53.552;9.908;2022-11-11T05:44:31;10.30;99.90
13684;DHT22;6914;53.552;9.908;2022-11-11T05:46:58;10.30;99.90
13684;DHT22;6914;53.552;9.908;2022-11-11T05:49:25;10.40;99.90
13684;DHT22;6914;53.552;9.908;2022-11-11T05:51:52;10.30;99.90
13684;DHT22;6914;53.552;9.908;2022-11-11T05:54:21;10.20;99.90
13684;DHT22;6914;53.552;9.908;2022-11-11T05:56:48;10.30;99.90
13684;DHT22;6914;53.552;9.908;2022-11-11T05:59:15;10.30;99.90
13684;DHT22;6914;53.552;9.908;2022-11-11T06:01:42;10.20;99.90
13684;DHT22;6914;53.552;9.908;2022-11-11T06:04:09;10.30;99.90
13684;DHT22;6914;53.552;9.908;2022-11-11T06:06:36;10.20;99.90
13684;DHT22;6914;53.552;9.908;2022-11-11T06:09:03;10.30;99.90
13684;DHT22;6914;53.552;9.908;2022-11-11T06:11:32;10.30;99.90
13684;DHT22;6914;53.552;9.908;2022-11-11T06:13:58;10.30;99.90
13684;DHT22;6914;53.552;9.908;2022-11-11T06:16:25;10.30;99.90
13684;DHT22;6914;53.552;9.908;2022-11-11T06:18:52;10.10;99.90
13684;DHT22;6914;53.552;9.908;2022-11-11T06:21:19;10.40;99.90
13684;DHT22;6914;53.552;9.908;2022-11-11T06:23:45;10.20;99.90
13684;DHT22;6914;53.552;9.908;2022-11-11T06:26:13;10.30;99.90
13684;DHT22;6914;53.552;9.908;2022-11-11T06:28:42;10.30;99.90
13684;DHT22;6914;53.552;9.908;2022-11-11T06:31:10;10.30;99.90
13684;DHT22;6914;53.552;9.908;2022-11-11T06:33:38;10.30;99.90
13684;DHT22;6914;53.552;9.908;2022-11-11T06:36:05;10.30;99.90
13684;DHT22;6914;53.552;9.908;2022-11-11T06:38:33;10.30;99.90
13684;DHT22;6914;53.552;9.908;2022-11-11T06:41:00;10.30;99.90
13684;DHT22;6914;53.552;9.908;2022-11-11T06:43:26;10.30;99.90
13684;DHT22;6914;53.552;9.908;2022-11-11T06:45:55;10.30;99.90
13684;DHT22;6914;53.552;9.908;2022-11-11T06:48:23;10.20;99.90
13684;DHT22;6914;53.552;9.908;2022-11-11T06:50:50;10.30;99.90
13684;DHT22;6914;53.552;9.908;2022-11-11T06:53:18;10.20;99.90
13684;DHT22;6914;53.552;9.908;2022-11-11T06:55:45;10.30;99.90
13684;DHT22;6914;53.552;9.908;2022-11-11T06:58:14;10.40;99.90
13684;DHT22;6914;53.552;9.908;2022-11-11T07:00:42;10.20;99.90
13684;DHT22;6914;53.552;9.908;2022-11-11T07:03:12;10.20;99.90
13684;DHT22;6914;53.552;9.908;2022-11-11T07:05:39;10.10;99.90
13684;DHT22;6914;53.552;9.908;2022-11-11T07:08:08;10.20;99.90
13684;DHT22;6914;53.552;9.908;2022-11-11T07:10:37;10.20;99.90
13684;DHT22;6914;53.552;9.908;2022-11-11T07:13:04;10.20;99.90
13684;DHT22;6914;53.552;9.908;2022-11-11T07:15:32;10.20;99.90
13684;DHT22;6914;53.552;9.908;2022-11-11T07:17:59;10.20;99.90
13684;DHT22;6914;53.552;9.908;2022-11-11T07:20:27;10.20;99.90
13684;DHT22;6914;53.552;9.908;2022-11-11T07:22:54;10.00;99.90
13684;DHT22;6914;53.552;9.908;2022-11-11T07:25:21;10.10;99.90
13684;DHT22;6914;53.552;9.908;2022-11-11T07:27:48;10.30;99.90
13684;DHT22;6914;53.552;9.908;2022-11-11T07:30:15;10.20;99.90
13684;DHT22;6914;53.552;9.908;2022-11-11T07:32:45;10.20;99.90
13684;DHT22;6914;53.552;9.908;2022-11-11T07:35:12;10.10;99.90
13684;DHT22;6914;53.552;9.908;2022-11-11T07:37:41;10.20;99.90
13684;DHT22;6914;53.552;9.908;2022-11-11T07:40:09;10.10;99.90
13684;DHT22;6914;53.552;9.908;2022-11-11T07:42:36;10.10;99.90
13684;DHT22;6914;53.552;9.908;2022-11-11T07:45:05;10.10;99.90
13684;DHT22;6914;53.552;9.908;2022-11-11T07:47:32;10.10;99.90
13684;DHT22;6914;53.552;9.908;2022-11-11T07:50:00;10.00;99.90
13684;DHT22;6914;53.552;9.908;2022-11-11T07:52:27;10.10;99.90
13684;DHT22;6914;53.552;9.908;2022-11-11T07:54:55;10.10;99.90
13684;DHT22;6914;53.552;9.908;2022-11-11T07:57:22;10.00;99.90
13684;DHT22;6914;53.552;9.908;2022-11-11T07:59:49;10.30;99.90
13684;DHT22;6914;53.552;9.908;2022-11-11T08:02:16;10.00;99.90
13684;DHT22;6914;53.552;9.908;2022-11-11T08:04:42;10.00;99.90
13684;DHT22;6914;53.552;9.908;2022-11-11T08:07:10;10.10;99.90
13684;DHT22;6914;53.552;9.908;2022-11-11T08:09:37;10.10;99.90
13684;DHT22;6914;53.552;9.908;2022-11-11T08:12:05;10.10;99.90
13684;DHT22;6914;53.552;9.908;2022-11-11T08:14:49;10.20;99.90
13684;DHT22;6914;53.552;9.908;2022-11-11T08:17:16;10.20;99.90
13684;DHT22;6914;53.552;9.908;2022-11-11T08:19:44;10.20;99.90
13684;DHT22;6914;53.552;9.908;2022-11-11T08:22:11;10.20;99.90
13684;DHT22;6914;53.552;9.908;2022-11-11T08:24:37;10.10;99.90
13684;DHT22;6914;53.552;9.908;2022-11-11T08:27:05;10.30;99.90
13684;DHT22;6914;53.552;9.908;2022-11-11T08:29:35;10.30;99.90
13684;DHT22;6914;53.552;9.908;2022-11-11T08:32:02;10.00;99.90
13684;DHT22;6914;53.552;9.908;2022-11-11T08:34:29;10.30;99.90
13684;DHT22;6914;53.552;9.908;2022-11-11T08:36:55;10.30;99.90
13684;DHT22;6914;53.552;9.908;2022-11-11T08:39:22;10.30;99.90
13684;DHT22;6914;53.552;9.908;2022-11-11T08:41:49;10.30;99.90
13684;DHT22;6914;53.552;9.908;2022-11-11T08:44:17;10.40;99.90
13684;DHT22;6914;53.552;9.908;2022-11-11T08:46:44;10.40;99.90
13684;DHT22;6914;53.552;9.908;2022-11-11T08:49:18;10.40;99.90
13684;DHT22;6914;53.552;9.908;2022-11-11T08:51:45;10.20;99.90
13684;DHT22;6914;53.552;9.908;2022-11-11T08:54:11;10.40;99.90
13684;DHT22;6914;53.552;9.908;2022-11-11T08:56:38;10.40;99.90
13684;DHT22;6914;53.552;9.908;2022-11-11T08:59:05;10.50;99.90
13684;DHT22;6914;53.552;9.908;2022-11-11T09:01:34;10.40;99.90
13684;DHT22;6914;53.552;9.908;2022-11-11T09:04:01;10.50;99.90
13684;DHT22;6914;53.552;9.908;2022-11-11T09:06:28;10.50;99.90
13684;DHT22;6914;53.552;9.908;2022-11-11T09:08:54;10.50;99.90
13684;DHT22;6914;53.552;9.908;2022-11-11T09:11:21;10.50;99.90
13684;DHT22;6914;53.552;9.908;2022-11-11T09:13:48;10.60;99.90
13684;DHT22;6914;53.552;9.908;2022-11-11T09:16:15;10.50;99.90
13684;DHT22;6914;53.552;9.908;2022-11-11T09:18:43;10.50;99.90
13684;DHT22;6914;53.552;9.908;2022-11-11T09:21:10;10.30;99.90
13684;DHT22;6914;53.552;9.908;2022-11-11T09:23:36;10.40;99.90
13684;DHT22;6914;53.552;9.908;2022-11-11T09:26:03;10.60;99.90
13684;DHT22;6914;53.552;9.908;2022-11-11T09:28:30;10.50;99.90
13684;DHT22;6914;53.552;9.908;2022-11-11T09:30:58;10.60;99.90
13684;DHT22;6914;53.552;9.908;2022-11-11T09:33:25;10.60;99.90
13684;DHT22;6914;53.552;9.908;2022-11-11T09:35:56;10.60;99.90
13684;DHT22;6914;53.552;9.908;2022-11-11T09:38:23;10.70;99.90
13684;DHT22;6914;53.552;9.908;2022-11-11T09:41:03;10.70;99.90
13684;DHT22;6914;53.552;9.908;2022-11-11T09:43:40;10.80;99.90
13684;DHT22;6914;53.552;9.908;2022-11-11T09:46:17;10.80;99.90
13684;DHT22;6914;53.552;9.908;2022-11-11T09:49:09;10.70;99.90
13684;DHT22;6914;53.552;9.908;2022-11-11T09:51:44;10.80;99.90
13684;DHT22;6914;53.552;9.908;2022-11-11T09:54:16;9.60;99.90
13684;DHT22;6914;53.552;9.908;2022-11-11T09:56:44;10.80;99.90
13684;DHT22;6914;53.552;9.908;2022-11-11T09:59:14;10.80;99.90
13684;DHT22;6914;53.552;9.908;2022-11-11T10:01:44;10.80;99.90
13684;DHT22;6914;53.552;9.908;2022-11-11T10:04:20;10.80;99.90
13684;DHT22;6914;53.552;9.908;2022-11-11T10:07:02;10.90;99.90
13684;DHT22;6914;53.552;9.908;2022-11-11T10:09:36;10.80;99.90
13684;DHT22;6914;53.552;9.908;2022-11-11T10:12:09;11.00;99.90
13684;DHT22;6914;53.552;9.908;2022-11-11T10:14:39;11.40;99.90
13684;DHT22;6914;53.552;9.908;2022-11-11T10:17:28;10.90;99.90
13684;DHT22;6914;53.552;9.908;2022-11-11T10:20:04;11.40;99.90
13684;DHT22;6914;53.552;9.908;2022-11-11T10:22:34;11.00;99.90
13684;DHT22;6914;53.552;9.908;2022-11-11T10:25:18;11.00;99.90
13684;DHT22;6914;53.552;9.908;2022-11-11T10:27:51;11.10;99.90
13684;DHT22;6914;53.552;9.908;2022-11-11T10:30:20;11.00;99.90
13684;DHT22;6914;53.552;9.908;2022-11-11T10:32:59;11.10;99.90
13684;DHT22;6914;53.552;9.908;2022-11-11T10:35:30;11.00;99.90
13684;DHT22;6914;53.552;9.908;2022-11-11T10:38:12;11.10;99.90
13684;DHT22;6914;53.552;9.908;2022-11-11T10:40:49;11.20;99.90
13684;DHT22;6914;53.552;9.908;2022-11-11T10:43:22;11.20;99.90
13684;DHT22;6914;53.552;9.908;2022-11-11T10:45:58;11.10;99.90
13684;DHT22;6914;53.552;9.908;2022-11-11T10:48:37;11.00;99.90
13684;DHT22;6914;53.552;9.908;2022-11-11T10:51:06;11.10;99.90
13684;DHT22;6914;53.552;9.908;2022-11-11T10:53:37;11.10;99.90
13684;DHT22;6914;53.552;9.908;2022-11-11T10:56:12;11.20;99.90
13684;DHT22;6914;53.552;9.908;2022-11-11T10:58:45;11.30;99.90
13684;DHT22;6914;53.552;9.908;2022-11-11T11:01:19;11.40;99.90
13684;DHT22;6914;53.552;9.908;2022-11-11T11:03:49;11.20;99.90
13684;DHT22;6914;53.552;9.908;2022-11-11T11:06:21;11.20;99.90
13684;DHT22;6914;53.552;9.908;2022-11-11T11:08:53;11.20;99.90
13684;DHT22;6914;53.552;9.908;2022-11-11T11:11:23;11.30;99.90
13684;DHT22;6914;53.552;9.908;2022-11-11T11:13:54;11.20;99.90
13684;DHT22;6914;53.552;9.908;2022-11-11T11:16:26;11.20;99.90
13684;DHT22;6914;53.552;9.908;2022-11-11T11:19:16;11.30;99.90
13684;DHT22;6914;53.552;9.908;2022-11-11T11:21:54;11.30;99.90
13684;DHT22;6914;53.552;9.908;2022-11-11T11:24:26;11.20;99.90
13684;DHT22;6914;53.552;9.908;2022-11-11T11:26:54;11.20;99.90
13684;DHT22;6914;53.552;9.908;2022-11-11T11:29:26;11.20;99.90
13684;DHT22;6914;53.552;9.908;2022-11-11T11:31:54;11.20;99.90
13684;DHT22;6914;53.552;9.908;2022-11-11T11:34:22;11.20;99.90
13684;DHT22;6914;53.552;9.908;2022-11-11T11:37:07;11.20;99.90
13684;DHT22;6914;53.552;9.908;2022-11-11T11:39:36;11.00;99.90
13684;DHT22;6914;53.552;9.908;2022-11-11T11:42:04;11.10;99.90
13684;DHT22;6914;53.552;9.908;2022-11-11T11:44:32;11.20;99.90
13684;DHT22;6914;53.552;9.908;2022-11-11T11:47:10;11.10;99.90
13684;DHT22;6914;53.552;9.908;2022-11-11T11:49:52;11.00;99.90
13684;DHT22;6914;53.552;9.908;2022-11-11T11:52:33;11.10;99.90
13684;DHT22;6914;53.552;9.908;2022-11-11T11:55:11;10.90;99.90
13684;DHT22;6914;53.552;9.908;2022-11-11T11:57:49;11.10;99.90
13684;DHT22;6914;53.552;9.908;2022-11-11T12:00:20;11.10;99.90
13684;DHT22;6914;53.552;9.908;2022-11-11T12:03:17;11.30;99.90
13684;DHT22;6914;53.552;9.908;2022-11-11T12:05:57;11.30;99.90
13684;DHT22;6914;53.552;9.908;2022-11-11T12:08:38;11.00;99.90
13684;DHT22;6914;53.552;9.908;2022-11-11T12:11:15;11.00;99.90
13684;DHT22;6914;53.552;9.908;2022-11-11T12:13:53;11.20;99.90
13684;DHT22;6914;53.552;9.908;2022-11-11T12:16:25;11.80;99.90
13684;DHT22;6914;53.552;9.908;2022-11-11T12:19:11;11.10;99.90
13684;DHT22;6914;53.552;9.908;2022-11-11T12:21:43;11.70;99.90
13684;DHT22;6914;53.552;9.908;2022-11-11T12:24:30;10.10;99.90
13684;DHT22;6914;53.552;9.908;2022-11-11T12:27:09;11.20;99.90
13684;DHT22;6914;53.552;9.908;2022-11-11T12:29:50;11.00;99.90
13684;DHT22;6914;53.552;9.908;2022-11-11T12:32:33;11.30;99.90
13684;DHT22;6914;53.552;9.908;2022-11-11T12:35:15;10.70;99.90
13684;DHT22;6914;53.552;9.908;2022-11-11T12:37:48;12.00;99.90
13684;DHT22;6914;53.552;9.908;2022-11-11T12:40:26;10.90;99.90
13684;DHT22;6914;53.552;9.908;2022-11-11T12:43:05;11.40;99.90
13684;DHT22;6914;53.552;9.908;2022-11-11T12:45:39;11.40;99.90
13684;DHT22;6914;53.552;9.908;2022-11-11T12:48:22;10.80;99.90
13684;DHT22;6914;53.552;9.908;2022-11-11T12:50:58;11.10;99.90
13684;DHT22;6914;53.552;9.908;2022-11-11T12:53:34;11.40;99.90
13684;DHT22;6914;53.552;9.908;2022-11-11T12:56:10;11.30;99.90
13684;DHT22;6914;53.552;9.908;2022-11-11T12:58:48;11.30;99.90
13684;DHT22;6914;53.552;9.908;2022-11-11T13:01:23;11.10;99.90
13684;DHT22;6914;53.552;9.908;2022-11-11T13:04:03;11.40;99.90
13684;DHT22;6914;53.552;9.908;2022-11-11T13:06:48;11.40;99.90
13684;DHT22;6914;53.552;9.908;2022-11-11T13:09:26;11.40;99.90
13684;DHT22;6914;53.552;9.908;2022-11-11T13:12:02;11.70;99.90
13684;DHT22;6914;53.552;9.908;2022-11-11T13:14:56;11.30;99.90
13684;DHT22;6914;53.552;9.908;2022-11-11T13:17:24;11.50;99.90
13684;DHT22;6914;53.552;9.908;2022-11-11T13:19:53;11.60;99.90
13684;DHT22;6914;53.552;9.908;2022-11-11T13:22:24;11.50;99.90
13684;DHT22;6914;53.552;9.908;2022-11-11T13:24:51;11.10;99.90
13684;DHT22;6914;53.552;9.908;2022-11-11T13:27:25;11.10;99.90
13684;DHT22;6914;53.552;9.908;2022-11-11T13:30:25;11.20;99.90
13684;DHT22;6914;53.552;9.908;2022-11-11T13:32:58;11.50;99.90
13684;DHT22;6914;53.552;9.908;2022-11-11T13:35:29;11.80;99.90
13684;DHT22;6914;53.552;9.908;2022-11-11T13:37:57;11.50;99.90
13684;DHT22;6914;53.552;9.908;2022-11-11T13:40:36;11.40;99.90
13684;DHT22;6914;53.552;9.908;2022-11-11T13:43:05;11.60;99.90
13684;DHT22;6914;53.552;9.908;2022-11-11T13:45:41;11.40;99.90
13684;DHT22;6914;53.552;9.908;2022-11-11T13:48:19;12.70;99.90
13684;DHT22;6914;53.552;9.908;2022-11-11T13:50:47;11.60;99.90
13684;DHT22;6914;53.552;9.908;2022-11-11T13:53:24;12.20;99.90
13684;DHT22;6914;53.552;9.908;2022-11-11T13:55:53;11.80;99.90
13684;DHT22;6914;53.552;9.908;2022-11-11T13:58:28;11.60;99.90
13684;DHT22;6914;53.552;9.908;2022-11-11T14:01:00;12.80;99.90
13684;DHT22;6914;53.552;9.908;2022-11-11T14:03:33;14.30;99.90
13684;DHT22;6914;53.552;9.908;2022-11-11T14:06:29;11.50;99.90
13684;DHT22;6914;53.552;9.908;2022-11-11T14:09:01;11.40;99.90
13684;DHT22;6914;53.552;9.908;2022-11-11T14:11:33;11.60;99.90
13684;DHT22;6914;53.552;9.908;2022-11-11T14:17:03;12.20;99.90
13684;DHT22;6914;53.552;9.908;2022-11-11T14:19:30;11.60;99.90
13684;DHT22;6914;53.552;9.908;2022-11-11T14:21:59;11.40;99.90
13684;DHT22;6914;53.552;9.908;2022-11-11T14:24:33;11.80;99.90
13684;DHT22;6914;53.552;9.908;2022-11-11T14:27:02;11.60;99.90
13684;DHT22;6914;53.552;9.908;2022-11-11T14:29:31;11.60;99.90
13684;DHT22;6914;53.552;9.908;2022-11-11T14:32:31;11.60;99.90
13684;DHT22;6914;53.552;9.908;2022-11-11T14:35:12;12.20;99.90
13684;DHT22;6914;53.552;9.908;2022-11-11T14:37:56;11.60;99.90
13684;DHT22;6914;53.552;9.908;2022-11-11T14:40:27;11.70;99.90
13684;DHT22;6914;53.552;9.908;2022-11-11T14:42:55;11.60;99.90
13684;DHT22;6914;53.552;9.908;2022-11-11T14:48:49;11.70;99.90
13684;DHT22;6914;53.552;9.908;2022-11-11T14:51:42;11.70;99.90
13684;DHT22;6914;53.552;9.908;2022-11-11T14:54:28;11.90;99.90
13684;DHT22;6914;53.552;9.908;2022-11-11T14:57:00;11.70;99.90
13684;DHT22;6914;53.552;9.908;2022-11-11T14:59:30;11.50;99.90
13684;DHT22;6914;53.552;9.908;2022-11-11T15:01:58;12.10;99.90
13684;DHT22;6914;53.552;9.908;2022-11-11T15:04:36;11.60;99.90
13684;DHT22;6914;53.552;9.908;2022-11-11T15:07:04;11.50;99.90
13684;DHT22;6914;53.552;9.908;2022-11-11T15:09:52;11.70;99.90
13684;DHT22;6914;53.552;9.908;2022-11-11T15:12:33;13.90;99.90
13684;DHT22;6914;53.552;9.908;2022-11-11T15:15:08;11.50;99.90
13684;DHT22;6914;53.552;9.908;2022-11-11T15:17:43;11.20;99.90
13684;DHT22;6914;53.552;9.908;2022-11-11T15:20:34;12.10;99.90
13684;DHT22;6914;53.552;9.908;2022-11-11T15:23:13;9.40;99.90
13684;DHT22;6914;53.552;9.908;2022-11-11T15:25:48;13.10;99.90
13684;DHT22;6914;53.552;9.908;2022-11-11T15:28:33;12.80;99.90
13684;DHT22;6914;53.552;9.908;2022-11-11T15:31:14;11.70;99.90
13684;DHT22;6914;53.552;9.908;2022-11-11T15:33:52;13.50;99.90
13684;DHT22;6914;53.552;9.908;2022-11-11T15:36:32;11.70;99.90
13684;DHT22;6914;53.552;9.908;2022-11-11T15:39:04;11.60;99.90
13684;DHT22;6914;53.552;9.908;2022-11-11T15:41:35;11.60;99.90
13684;DHT22;6914;53.552;9.908;2022-11-11T15:44:08;11.60;99.90
13684;DHT22;6914;53.552;9.908;2022-11-11T15:46:40;11.70;99.90
13684;DHT22;6914;53.552;9.908;2022-11-11T15:49:12;11.40;99.90
13684;DHT22;6914;53.552;9.908;2022-11-11T15:51:40;11.40;99.90
13684;DHT22;6914;53.552;9.908;2022-11-11T15:54:17;11.40;99.90
13684;DHT22;6914;53.552;9.908;2022-11-11T15:56:46;11.80;99.90
13684;DHT22;6914;53.552;9.908;2022-11-11T15:59:17;11.60;99.90
13684;DHT22;6914;53.552;9.908;2022-11-11T16:01:47;11.40;99.90
13684;DHT22;6914;53.552;9.908;2022-11-11T16:04:16;11.40;99.90
13684;DHT22;6914;53.552;9.908;2022-11-11T16:06:45;12.70;99.90
13684;DHT22;6914;53.552;9.908;2022-11-11T16:09:14;11.40;99.90
13684;DHT22;6914;53.552;9.908;2022-11-11T16:11:42;11.40;99.90
13684;DHT22;6914;53.552;9.908;2022-11-11T16:14:19;11.20;99.90
13684;DHT22;6914;53.552;9.908;2022-11-11T16:16:47;13.10;99.90
13684;DHT22;6914;53.552;9.908;2022-11-11T16:19:23;13.20;99.90
13684;DHT22;6914;53.552;9.908;2022-11-11T16:21:57;12.20;99.90
13684;DHT22;6914;53.552;9.908;2022-11-11T16:24:29;11.50;99.90